sensor_id;sensor_type;location;lat;lon;timestamp;temperature;humidity
21207;DHT22;10761;48.532;8.026;2024-01-15T00:00:40;-1.00;1.00
21207;DHT22;10761;48.532;8.026;2024-01-15T00:03:05;-1.00;1.00
21207;DHT22;10761;48.532;8.026;2024-01-15T00:05:31;-0.90;1.00
21207;DHT22;10761;48.532;8.026;2024-01-15T00:07:56;-0.90;1.00
21207;DHT22;10761;48.532;8.026;2024-01-15T00:10:22;-0.90;1.00
21207;DHT22;10761;48.532;8.026;2024-01-15T00:12:48;-0.80;1.00
21207;DHT22;10761;48.532;8.026;2024-01-15T00:15:14;-0.80;1.00
21207;DHT22;10761;48.532;8.026;2024-01-15T00:17:40;-0.80;1.00
21207;DHT22;10761;48.532;8.026;2024-01-15T00:20:06;-0.70;99.90
21207;DHT22;10761;48.532;8.026;2024-01-15T00:22:32;-0.80;99.90
21207;DHT22;10761;48.532;8.026;2024-01-15T00:24:57;-0.70;99.90
21207;DHT22;10761;48.532;8.026;2024-01-15T00:27:23;-0.70;1.00
21207;DHT22;10761;48.532;8.026;2024-01-15T00:29:49;-0.70;1.00
21207;DHT22;10761;48.532;8.026;2024-01-15T00:32:16;-0.70;1.00
21207;DHT22;10761;48.532;8.026;2024-01-15T00:34:41;-0.70;1.00
21207;DHT22;10761;48.532;8.026;2024-01-15T00:37:07;-0.80;1.00
21207;DHT22;10761;48.532;8.026;2024-01-15T00:39:33;-0.80;1.00
21207;DHT22;10761;48.532;8.026;2024-01-15T00:41:58;-0.90;1.00
21207;DHT22;10761;48.532;8.026;2024-01-15T00:44:24;-0.90;1.00
21207;DHT22;10761;48.532;8.026;2024-01-15T00:46:49;-0.90;1.00
21207;DHT22;10761;48.532;8.026;2024-01-15T00:49:15;-0.90;1.00
21207;DHT22;10761;48.532;8.026;2024-01-15T00:51:41;-0.90;1.00
21207;DHT22;10761;48.532;8.026;2024-01-15T00:54:07;-0.90;1.00
21207;DHT22;10761;48.532;8.026;2024-01-15T00:56:33;-0.90;1.00
21207;DHT22;10761;48.532;8.026;2024-01-15T00:58:59;-0.80;99.90
21207;DHT22;10761;48.532;8.026;2024-01-15T01:01:25;-0.80;99.90
21207;DHT22;10761;48.532;8.026;2024-01-15T01:03:50;-0.80;1.00
21207;DHT22;10761;48.532;8.026;2024-01-15T01:06:16;-0.80;1.00
21207;DHT22;10761;48.532;8.026;2024-01-15T01:08:41;-0.80;1.00
21207;DHT22;10761;48.532;8.026;2024-01-15T01:11:07;-0.80;1.00
21207;DHT22;10761;48.532;8.026;2024-01-15T01:13:33;-0.90;1.00
21207;DHT22;10761;48.532;8.026;2024-01-15T01:15:58;-0.90;1.00
21207;DHT22;10761;48.532;8.026;2024-01-15T01:18:24;-0.90;1.00
21207;DHT22;10761;48.532;8.026;2024-01-15T01:20:50;-0.90;1.00
21207;DHT22;10761;48.532;8.026;2024-01-15T01:23:16;-0.90;1.00
21207;DHT22;10761;48.532;8.026;2024-01-15T01:25:41;-0.90;1.00
21207;DHT22;10761;48.532;8.026;2024-01-15T01:28:07;-0.90;1.00
21207;DHT22;10761;48.532;8.026;2024-01-15T01:30:33;-0.90;1.00
21207;DHT22;10761;48.532;8.026;2024-01-15T01:32:58;-0.80;1.00
21207;DHT22;10761;48.532;8.026;2024-01-15T01:35:24;-0.80;1.00
21207;DHT22;10761;48.532;8.026;2024-01-15T01:37:50;-0.90;1.00
21207;DHT22;10761;48.532;8.026;2024-01-15T01:40:15;-1.00;1.00
21207;DHT22;10761;48.532;8.026;2024-01-15T01:42:41;-1.00;1.00
21207;DHT22;10761;48.532;8.026;2024-01-15T01:45:07;-1.10;1.00
21207;DHT22;10761;48.532;8.026;2024-01-15T01:47:32;-1.10;1.00
21207;DHT22;10761;48.532;8.026;2024-01-15T01:49:58;-1.10;1.00
21207;DHT22;10761;48.532;8.026;2024-01-15T01:52:24;-1.10;1.00
21207;DHT22;10761;48.532;8.026;2024-01-15T01:54:52;-1.10;1.00
21207;DHT22;10761;48.532;8.026;2024-01-15T01:57:18;-1.10;1.00
21207;DHT22;10761;48.532;8.026;2024-01-15T01:59:45;-1.10;1.00
21207;DHT22;10761;48.532;8.026;2024-01-15T02:02:12;-1.00;1.00
21207;DHT22;10761;48.532;8.026;2024-01-15T02:04:38;-1.00;1.00
21207;DHT22;10761;48.532;8.026;2024-01-15T02:07:03;-1.00;1.00
21207;DHT22;10761;48.532;8.026;2024-01-15T02:09:29;-1.00;1.00
21207;DHT22;10761;48.532;8.026;2024-01-15T02:11:55;-1.00;1.00
21207;DHT22;10761;48.532;8.026;2024-01-15T02:14:21;-0.90;1.00
21207;DHT22;10761;48.532;8.026;2024-01-15T02:16:47;-1.00;1.00
21207;DHT22;10761;48.532;8.026;2024-01-15T02:19:16;-1.00;1.00
21207;DHT22;10761;48.532;8.026;2024-01-15T02:21:45;-1.00;1.00
21207;DHT22;10761;48.532;8.026;2024-01-15T02:24:11;-1.10;1.00
21207;DHT22;10761;48.532;8.026;2024-01-15T02:26:37;-1.10;1.00
21207;DHT22;10761;48.532;8.026;2024-01-15T02:29:04;-1.10;1.00
21207;DHT22;10761;48.532;8.026;2024-01-15T02:31:30;-1.10;1.00
21207;DHT22;10761;48.532;8.026;2024-01-15T02:33:55;-1.10;1.00
21207;DHT22;10761;48.532;8.026;2024-01-15T02:36:21;-1.10;1.00
21207;DHT22;10761;48.532;8.026;2024-01-15T02:38:47;-1.00;1.00
21207;DHT22;10761;48.532;8.026;2024-01-15T02:41:12;-0.90;1.00
21207;DHT22;10761;48.532;8.026;2024-01-15T02:43:40;-1.00;1.00
21207;DHT22;10761;48.532;8.026;2024-01-15T02:46:06;-1.00;1.00
21207;DHT22;10761;48.532;8.026;2024-01-15T02:48:31;-0.90;1.00
21207;DHT22;10761;48.532;8.026;2024-01-15T02:50:57;-0.90;1.00
21207;DHT22;10761;48.532;8.026;2024-01-15T02:53:22;-0.80;1.00
21207;DHT22;10761;48.532;8.026;2024-01-15T02:55:48;-0.80;1.00
21207;DHT22;10761;48.532;8.026;2024-01-15T02:58:14;-0.80;1.00
21207;DHT22;10761;48.532;8.026;2024-01-15T03:00:40;-0.80;1.00
21207;DHT22;10761;48.532;8.026;2024-01-15T03:03:05;-0.80;1.00
21207;DHT22;10761;48.532;8.026;2024-01-15T03:05:31;-0.80;1.00
21207;DHT22;10761;48.532;8.026;2024-01-15T03:07:56;-0.80;1.00
21207;DHT22;10761;48.532;8.026;2024-01-15T03:10:22;-0.80;1.00
21207;DHT22;10761;48.532;8.026;2024-01-15T03:12:47;-0.80;1.00
21207;DHT22;10761;48.532;8.026;2024-01-15T03:15:13;-0.80;1.00
21207;DHT22;10761;48.532;8.026;2024-01-15T03:17:38;-0.80;1.00
21207;DHT22;10761;48.532;8.026;2024-01-15T03:20:04;-0.80;1.00
21207;DHT22;10761;48.532;8.026;2024-01-15T03:22:30;-0.80;1.00
21207;DHT22;10761;48.532;8.026;2024-01-15T03:24:56;-0.80;1.00
21207;DHT22;10761;48.532;8.026;2024-01-15T03:27:21;-0.80;1.00
21207;DHT22;10761;48.532;8.026;2024-01-15T03:29:47;-0.80;1.00
21207;DHT22;10761;48.532;8.026;2024-01-15T03:32:12;-0.80;1.00
21207;DHT22;10761;48.532;8.026;2024-01-15T03:34:38;-0.80;1.00
21207;DHT22;10761;48.532;8.026;2024-01-15T03:37:03;-0.80;1.00
21207;DHT22;10761;48.532;8.026;2024-01-15T03:39:29;-0.80;1.00
21207;DHT22;10761;48.532;8.026;2024-01-15T03:41:55;-0.70;1.00
21207;DHT22;10761;48.532;8.026;2024-01-15T03:44:21;-0.70;1.00
21207;DHT22;10761;48.532;8.026;2024-01-15T03:46:46;-0.70;1.00
21207;DHT22;10761;48.532;8.026;2024-01-15T03:49:12;-0.60;1.00
21207;DHT22;10761;48.532;8.026;2024-01-15T03:51:37;-0.70;1.00
21207;DHT22;10761;48.532;8.026;2024-01-15T03:54:04;-0.60;1.00
21207;DHT22;10761;48.532;8.026;2024-01-15T03:56:30;-0.70;1.00
21207;DHT22;10761;48.532;8.026;2024-01-15T03:58:55;-0.60;1.00
21207;DHT22;10761;48.532;8.026;2024-01-15T04:01:21;-0.60;1.00
21207;DHT22;10761;48.532;8.026;2024-01-15T04:03:46;-0.60;1.00
21207;DHT22;10761;48.532;8.026;2024-01-15T04:06:12;-0.60;1.00
21207;DHT22;10761;48.532;8.026;2024-01-15T04:08:37;-0.60;1.00
21207;DHT22;10761;48.532;8.026;2024-01-15T04:11:03;-0.60;1.00
21207;DHT22;10761;48.532;8.026;2024-01-15T04:13:32;-0.60;1.00
21207;DHT22;10761;48.532;8.026;2024-01-15T04:15:58;-0.60;1.00
21207;DHT22;10761;48.532;8.026;2024-01-15T04:18:25;-0.60;1.00
21207;DHT22;10761;48.532;8.026;2024-01-15T04:20:50;-0.60;1.00
21207;DHT22;10761;48.532;8.026;2024-01-15T04:23:16;-0.60;1.00
21207;DHT22;10761;48.532;8.026;2024-01-15T04:25:41;-0.60;1.00
21207;DHT22;10761;48.532;8.026;2024-01-15T04:28:08;-0.60;1.00
21207;DHT22;10761;48.532;8.026;2024-01-15T04:30:34;-0.60;1.00
21207;DHT22;10761;48.532;8.026;2024-01-15T04:32:59;-0.50;1.00
21207;DHT22;10761;48.532;8.026;2024-01-15T04:35:25;-0.50;1.00
21207;DHT22;10761;48.532;8.026;2024-01-15T04:37:50;-0.50;1.00
21207;DHT22;10761;48.532;8.026;2024-01-15T04:40:16;-0.40;1.00
21207;DHT22;10761;48.532;8.026;2024-01-15T04:42:42;-0.40;1.00
21207;DHT22;10761;48.532;8.026;2024-01-15T04:45:07;-0.40;1.00
21207;DHT22;10761;48.532;8.026;2024-01-15T04:47:33;-0.30;1.00
21207;DHT22;10761;48.532;8.026;2024-01-15T04:49:59;-0.40;1.00
21207;DHT22;10761;48.532;8.026;2024-01-15T04:52:24;-0.30;1.00
21207;DHT22;10761;48.532;8.026;2024-01-15T04:54:50;-0.40;1.00
21207;DHT22;10761;48.532;8.026;2024-01-15T04:57:15;-0.40;1.00
21207;DHT22;10761;48.532;8.026;2024-01-15T04:59:41;-0.30;1.00
21207;DHT22;10761;48.532;8.026;2024-01-15T05:02:06;-0.40;1.00
21207;DHT22;10761;48.532;8.026;2024-01-15T05:04:32;-0.40;1.00
21207;DHT22;10761;48.532;8.026;2024-01-15T05:06:58;-0.30;1.00
21207;DHT22;10761;48.532;8.026;2024-01-15T05:09:23;-0.20;1.00
21207;DHT22;10761;48.532;8.026;2024-01-15T05:11:49;-0.20;1.00
21207;DHT22;10761;48.532;8.026;2024-01-15T05:14:14;-0.10;1.00
21207;DHT22;10761;48.532;8.026;2024-01-15T05:16:46;-0.10;1.00
21207;DHT22;10761;48.532;8.026;2024-01-15T05:19:12;0.00;99.90
21207;DHT22;10761;48.532;8.026;2024-01-15T05:21:38;0.00;99.90
21207;DHT22;10761;48.532;8.026;2024-01-15T05:24:04;0.10;99.90
21207;DHT22;10761;48.532;8.026;2024-01-15T05:26:29;0.20;99.90
21207;DHT22;10761;48.532;8.026;2024-01-15T05:28:55;0.20;99.90
21207;DHT22;10761;48.532;8.026;2024-01-15T05:31:20;0.20;28.60
21207;DHT22;10761;48.532;8.026;2024-01-15T05:33:46;0.20;1.00
21207;DHT22;10761;48.532;8.026;2024-01-15T05:36:11;0.30;1.00
21207;DHT22;10761;48.532;8.026;2024-01-15T05:38:37;0.30;1.00
21207;DHT22;10761;48.532;8.026;2024-01-15T05:41:02;0.30;99.90
21207;DHT22;10761;48.532;8.026;2024-01-15T05:43:28;0.40;1.00
21207;DHT22;10761;48.532;8.026;2024-01-15T05:45:53;0.40;1.00
21207;DHT22;10761;48.532;8.026;2024-01-15T05:48:19;0.40;1.00
21207;DHT22;10761;48.532;8.026;2024-01-15T05:50:44;0.40;99.90
21207;DHT22;10761;48.532;8.026;2024-01-15T05:53:10;0.40;1.00
21207;DHT22;10761;48.532;8.026;2024-01-15T05:55:36;0.40;99.90
21207;DHT22;10761;48.532;8.026;2024-01-15T05:58:03;0.40;1.00
21207;DHT22;10761;48.532;8.026;2024-01-15T06:00:29;0.50;99.90
21207;DHT22;10761;48.532;8.026;2024-01-15T06:02:54;0.50;99.90
21207;DHT22;10761;48.532;8.026;2024-01-15T06:05:20;0.50;1.00
21207;DHT22;10761;48.532;8.026;2024-01-15T06:07:45;0.50;1.00
21207;DHT22;10761;48.532;8.026;2024-01-15T06:10:11;0.50;1.00
21207;DHT22;10761;48.532;8.026;2024-01-15T06:12:36;0.50;1.00
21207;DHT22;10761;48.532;8.026;2024-01-15T06:15:02;0.50;1.00
21207;DHT22;10761;48.532;8.026;2024-01-15T06:17:28;0.60;99.90
21207;DHT22;10761;48.532;8.026;2024-01-15T06:19:53;0.60;1.00
21207;DHT22;10761;48.532;8.026;2024-01-15T06:22:19;0.60;99.90
21207;DHT22;10761;48.532;8.026;2024-01-15T06:24:44;0.70;11.20
21207;DHT22;10761;48.532;8.026;2024-01-15T06:27:10;0.70;1.00
21207;DHT22;10761;48.532;8.026;2024-01-15T06:29:37;0.70;1.00
21207;DHT22;10761;48.532;8.026;2024-01-15T06:32:03;0.60;1.00
21207;DHT22;10761;48.532;8.026;2024-01-15T06:34:29;0.70;1.00
21207;DHT22;10761;48.532;8.026;2024-01-15T06:36:54;0.70;1.00
21207;DHT22;10761;48.532;8.026;2024-01-15T06:39:20;0.70;1.00
21207;DHT22;10761;48.532;8.026;2024-01-15T06:41:46;0.70;1.00
21207;DHT22;10761;48.532;8.026;2024-01-15T06:44:11;0.80;1.00
21207;DHT22;10761;48.532;8.026;2024-01-15T06:46:42;0.80;1.00
21207;DHT22;10761;48.532;8.026;2024-01-15T06:49:07;0.90;1.00
21207;DHT22;10761;48.532;8.026;2024-01-15T06:51:33;0.90;1.00
21207;DHT22;10761;48.532;8.026;2024-01-15T06:53:58;0.90;1.00
21207;DHT22;10761;48.532;8.026;2024-01-15T06:56:24;0.80;1.00
21207;DHT22;10761;48.532;8.026;2024-01-15T06:58:49;0.80;1.00
21207;DHT22;10761;48.532;8.026;2024-01-15T07:01:15;0.80;1.00
21207;DHT22;10761;48.532;8.026;2024-01-15T07:03:40;0.80;94.40
21207;DHT22;10761;48.532;8.026;2024-01-15T07:06:06;0.80;1.00
21207;DHT22;10761;48.532;8.026;2024-01-15T07:08:32;0.90;1.00
21207;DHT22;10761;48.532;8.026;2024-01-15T07:10:57;0.90;1.00
21207;DHT22;10761;48.532;8.026;2024-01-15T07:13:23;1.00;1.00
21207;DHT22;10761;48.532;8.026;2024-01-15T07:15:48;0.90;1.00
21207;DHT22;10761;48.532;8.026;2024-01-15T07:18:14;0.90;1.00
21207;DHT22;10761;48.532;8.026;2024-01-15T07:20:39;1.00;1.00
21207;DHT22;10761;48.532;8.026;2024-01-15T07:23:05;1.00;1.00
21207;DHT22;10761;48.532;8.026;2024-01-15T07:25:30;1.00;1.00
21207;DHT22;10761;48.532;8.026;2024-01-15T07:27:56;1.00;1.00
21207;DHT22;10761;48.532;8.026;2024-01-15T07:30:22;1.00;1.00
21207;DHT22;10761;48.532;8.026;2024-01-15T07:32:47;1.20;99.90
21207;DHT22;10761;48.532;8.026;2024-01-15T07:35:14;1.10;1.00
21207;DHT22;10761;48.532;8.026;2024-01-15T07:37:41;1.10;1.00
21207;DHT22;10761;48.532;8.026;2024-01-15T07:40:06;1.10;1.00
21207;DHT22;10761;48.532;8.026;2024-01-15T07:42:34;1.10;1.00
21207;DHT22;10761;48.532;8.026;2024-01-15T07:45:00;1.10;1.00
21207;DHT22;10761;48.532;8.026;2024-01-15T07:47:26;1.00;1.00
21207;DHT22;10761;48.532;8.026;2024-01-15T07:49:52;0.90;7.00
21207;DHT22;10761;48.532;8.026;2024-01-15T07:52:18;0.80;1.00
21207;DHT22;10761;48.532;8.026;2024-01-15T07:54:43;0.80;99.90
21207;DHT22;10761;48.532;8.026;2024-01-15T07:57:10;0.70;1.00
21207;DHT22;10761;48.532;8.026;2024-01-15T07:59:35;0.70;99.90
21207;DHT22;10761;48.532;8.026;2024-01-15T08:02:01;0.60;1.00
21207;DHT22;10761;48.532;8.026;2024-01-15T08:04:26;0.50;99.90
21207;DHT22;10761;48.532;8.026;2024-01-15T08:06:52;0.60;99.90
21207;DHT22;10761;48.532;8.026;2024-01-15T08:09:18;0.60;1.00
21207;DHT22;10761;48.532;8.026;2024-01-15T08:11:43;0.50;32.70
21207;DHT22;10761;48.532;8.026;2024-01-15T08:14:10;0.50;1.00
21207;DHT22;10761;48.532;8.026;2024-01-15T08:16:36;0.50;1.00
21207;DHT22;10761;48.532;8.026;2024-01-15T08:19:02;0.40;99.90
21207;DHT22;10761;48.532;8.026;2024-01-15T08:21:27;0.40;99.90
21207;DHT22;10761;48.532;8.026;2024-01-15T08:23:57;0.40;1.00
21207;DHT22;10761;48.532;8.026;2024-01-15T08:26:23;0.40;1.00
21207;DHT22;10761;48.532;8.026;2024-01-15T08:28:49;0.40;90.90
21207;DHT22;10761;48.532;8.026;2024-01-15T08:31:14;0.40;99.90
21207;DHT22;10761;48.532;8.026;2024-01-15T08:33:40;0.40;1.00
21207;DHT22;10761;48.532;8.026;2024-01-15T08:36:05;0.30;1.00
21207;DHT22;10761;48.532;8.026;2024-01-15T08:38:31;0.30;1.00
21207;DHT22;10761;48.532;8.026;2024-01-15T08:40:56;0.20;1.00
21207;DHT22;10761;48.532;8.026;2024-01-15T08:43:24;0.20;1.00
21207;DHT22;10761;48.532;8.026;2024-01-15T08:45:50;0.10;1.00
21207;DHT22;10761;48.532;8.026;2024-01-15T08:48:16;0.10;1.00
21207;DHT22;10761;48.532;8.026;2024-01-15T08:50:42;0.10;1.00
21207;DHT22;10761;48.532;8.026;2024-01-15T08:53:11;0.10;1.00
21207;DHT22;10761;48.532;8.026;2024-01-15T08:55:37;0.10;1.00
21207;DHT22;10761;48.532;8.026;2024-01-15T08:58:03;0.10;1.00
21207;DHT22;10761;48.532;8.026;2024-01-15T09:00:29;0.10;1.00
21207;DHT22;10761;48.532;8.026;2024-01-15T09:02:55;0.10;1.00
21207;DHT22;10761;48.532;8.026;2024-01-15T09:05:21;0.10;1.00
21207;DHT22;10761;48.532;8.026;2024-01-15T09:07:47;0.10;1.00
21207;DHT22;10761;48.532;8.026;2024-01-15T09:10:13;0.10;8.30
21207;DHT22;10761;48.532;8.026;2024-01-15T09:12:39;0.10;12.20
21207;DHT22;10761;48.532;8.026;2024-01-15T09:15:05;0.10;29.20
21207;DHT22;10761;48.532;8.026;2024-01-15T09:17:32;0.10;14.30
21207;DHT22;10761;48.532;8.026;2024-01-15T09:19:57;0.10;39.40
21207;DHT22;10761;48.532;8.026;2024-01-15T09:22:23;0.20;29.90
21207;DHT22;10761;48.532;8.026;2024-01-15T09:24:49;0.20;1.00
21207;DHT22;10761;48.532;8.026;2024-01-15T09:27:14;0.20;1.00
21207;DHT22;10761;48.532;8.026;2024-01-15T09:29:41;0.30;1.00
21207;DHT22;10761;48.532;8.026;2024-01-15T09:32:07;0.30;1.00
21207;DHT22;10761;48.532;8.026;2024-01-15T09:34:33;0.30;1.00
21207;DHT22;10761;48.532;8.026;2024-01-15T09:36:59;0.40;1.00
21207;DHT22;10761;48.532;8.026;2024-01-15T09:39:31;0.50;1.00
21207;DHT22;10761;48.532;8.026;2024-01-15T09:41:57;0.50;1.00
21207;DHT22;10761;48.532;8.026;2024-01-15T09:44:23;0.50;1.00
21207;DHT22;10761;48.532;8.026;2024-01-15T09:46:49;0.50;1.00
21207;DHT22;10761;48.532;8.026;2024-01-15T09:49:18;0.50;1.00
21207;DHT22;10761;48.532;8.026;2024-01-15T09:51:43;0.50;1.00
21207;DHT22;10761;48.532;8.026;2024-01-15T09:54:09;0.50;1.00
21207;DHT22;10761;48.532;8.026;2024-01-15T09:56:35;0.40;1.00
21207;DHT22;10761;48.532;8.026;2024-01-15T09:59:01;0.50;1.00
21207;DHT22;10761;48.532;8.026;2024-01-15T10:01:28;0.50;1.00
21207;DHT22;10761;48.532;8.026;2024-01-15T10:03:54;0.60;1.00
21207;DHT22;10761;48.532;8.026;2024-01-15T10:06:21;0.60;1.00
21207;DHT22;10761;48.532;8.026;2024-01-15T10:08:49;0.70;1.00
21207;DHT22;10761;48.532;8.026;2024-01-15T10:11:15;0.70;1.00
21207;DHT22;10761;48.532;8.026;2024-01-15T10:13:43;0.80;99.90
21207;DHT22;10761;48.532;8.026;2024-01-15T10:16:09;0.80;99.90
21207;DHT22;10761;48.532;8.026;2024-01-15T10:18:34;0.80;99.90
21207;DHT22;10761;48.532;8.026;2024-01-15T10:21:02;0.90;1.00
21207;DHT22;10761;48.532;8.026;2024-01-15T10:23:28;0.90;1.00
21207;DHT22;10761;48.532;8.026;2024-01-15T10:25:56;0.90;1.00
21207;DHT22;10761;48.532;8.026;2024-01-15T10:28:22;0.90;1.00
21207;DHT22;10761;48.532;8.026;2024-01-15T10:30:55;0.90;1.00
21207;DHT22;10761;48.532;8.026;2024-01-15T10:33:24;1.00;1.00
21207;DHT22;10761;48.532;8.026;2024-01-15T10:35:57;1.00;1.00
21207;DHT22;10761;48.532;8.026;2024-01-15T10:38:25;0.90;1.00
21207;DHT22;10761;48.532;8.026;2024-01-15T10:40:52;0.90;99.90
21207;DHT22;10761;48.532;8.026;2024-01-15T10:43:17;1.00;99.90
21207;DHT22;10761;48.532;8.026;2024-01-15T10:45:50;1.00;23.10
21207;DHT22;10761;48.532;8.026;2024-01-15T10:48:17;1.00;99.90
21207;DHT22;10761;48.532;8.026;2024-01-15T10:50:44;1.00;99.90
21207;DHT22;10761;48.532;8.026;2024-01-15T10:53:11;1.00;99.90
21207;DHT22;10761;48.532;8.026;2024-01-15T10:55:38;1.00;99.90
21207;DHT22;10761;48.532;8.026;2024-01-15T10:58:05;1.10;99.90
21207;DHT22;10761;48.532;8.026;2024-01-15T11:00:34;1.00;1.00
21207;DHT22;10761;48.532;8.026;2024-01-15T11:03:01;1.10;1.00
21207;DHT22;10761;48.532;8.026;2024-01-15T11:05:27;1.10;1.00
21207;DHT22;10761;48.532;8.026;2024-01-15T11:07:56;1.10;1.00
21207;DHT22;10761;48.532;8.026;2024-01-15T11:10:42;1.10;1.00
21207;DHT22;10761;48.532;8.026;2024-01-15T11:13:15;1.10;1.00
21207;DHT22;10761;48.532;8.026;2024-01-15T11:15:58;1.10;1.00
21207;DHT22;10761;48.532;8.026;2024-01-15T11:18:26;1.10;1.00
21207;DHT22;10761;48.532;8.026;2024-01-15T11:23:44;1.00;1.00
21207;DHT22;10761;48.532;8.026;2024-01-15T11:28:56;1.10;1.00
21207;DHT22;10761;48.532;8.026;2024-01-15T11:31:29;1.20;1.00
21207;DHT22;10761;48.532;8.026;2024-01-15T11:33:54;1.20;1.00
21207;DHT22;10761;48.532;8.026;2024-01-15T11:36:42;1.20;1.00
21207;DHT22;10761;48.532;8.026;2024-01-15T11:42:02;1.20;99.90
21207;DHT22;10761;48.532;8.026;2024-01-15T11:44:31;1.30;99.90
21207;DHT22;10761;48.532;8.026;2024-01-15T11:47:01;1.30;99.90
21207;DHT22;10761;48.532;8.026;2024-01-15T11:49:53;1.30;99.90
21207;DHT22;10761;48.532;8.026;2024-01-15T11:52:23;1.30;1.00
21207;DHT22;10761;48.532;8.026;2024-01-15T11:55:06;1.20;1.00
21207;DHT22;10761;48.532;8.026;2024-01-15T11:57:41;1.00;98.10
21207;DHT22;10761;48.532;8.026;2024-01-15T12:00:09;0.90;99.90
21207;DHT22;10761;48.532;8.026;2024-01-15T12:02:36;0.90;99.90
21207;DHT22;10761;48.532;8.026;2024-01-15T12:05:01;0.90;99.90
21207;DHT22;10761;48.532;8.026;2024-01-15T12:07:28;0.90;99.90
21207;DHT22;10761;48.532;8.026;2024-01-15T12:09:54;0.90;99.90
21207;DHT22;10761;48.532;8.026;2024-01-15T12:12:35;0.90;99.90
21207;DHT22;10761;48.532;8.026;2024-01-15T12:15:03;0.90;99.90
21207;DHT22;10761;48.532;8.026;2024-01-15T12:17:29;1.00;99.90
21207;DHT22;10761;48.532;8.026;2024-01-15T12:19:55;1.00;99.90
21207;DHT22;10761;48.532;8.026;2024-01-15T12:22:21;0.90;99.90
21207;DHT22;10761;48.532;8.026;2024-01-15T12:24:47;0.90;99.90
21207;DHT22;10761;48.532;8.026;2024-01-15T12:27:13;0.90;99.90
21207;DHT22;10761;48.532;8.026;2024-01-15T12:29:38;0.90;99.90
21207;DHT22;10761;48.532;8.026;2024-01-15T12:32:05;0.90;99.90
21207;DHT22;10761;48.532;8.026;2024-01-15T12:34:30;0.90;99.90
21207;DHT22;10761;48.532;8.026;2024-01-15T12:36:57;0.90;99.90
21207;DHT22;10761;48.532;8.026;2024-01-15T12:39:24;0.80;99.90
21207;DHT22;10761;48.532;8.026;2024-01-15T12:41:50;0.70;99.90
21207;DHT22;10761;48.532;8.026;2024-01-15T12:44:16;0.70;99.90
21207;DHT22;10761;48.532;8.026;2024-01-15T12:46:42;0.70;99.90
21207;DHT22;10761;48.532;8.026;2024-01-15T12:49:08;0.60;99.90
21207;DHT22;10761;48.532;8.026;2024-01-15T12:51:36;0.60;99.90
21207;DHT22;10761;48.532;8.026;2024-01-15T12:54:02;0.60;99.90
21207;DHT22;10761;48.532;8.026;2024-01-15T12:56:28;0.60;99.90
21207;DHT22;10761;48.532;8.026;2024-01-15T12:58:53;0.50;99.90
21207;DHT22;10761;48.532;8.026;2024-01-15T13:01:19;0.50;99.90
21207;DHT22;10761;48.532;8.026;2024-01-15T13:03:44;0.50;99.90
21207;DHT22;10761;48.532;8.026;2024-01-15T13:06:10;0.50;99.90
21207;DHT22;10761;48.532;8.026;2024-01-15T13:08:35;0.50;99.90
21207;DHT22;10761;48.532;8.026;2024-01-15T13:11:01;0.50;99.90
21207;DHT22;10761;48.532;8.026;2024-01-15T13:13:27;0.50;99.90
21207;DHT22;10761;48.532;8.026;2024-01-15T13:15:52;0.50;99.90
21207;DHT22;10761;48.532;8.026;2024-01-15T13:18:20;0.50;99.90
21207;DHT22;10761;48.532;8.026;2024-01-15T13:20:46;0.50;99.90
21207;DHT22;10761;48.532;8.026;2024-01-15T13:23:12;0.50;99.90
21207;DHT22;10761;48.532;8.026;2024-01-15T13:25:38;0.50;99.90
21207;DHT22;10761;48.532;8.026;2024-01-15T13:28:05;0.50;99.90
21207;DHT22;10761;48.532;8.026;2024-01-15T13:30:30;0.50;99.90
21207;DHT22;10761;48.532;8.026;2024-01-15T13:32:56;0.50;99.90
21207;DHT22;10761;48.532;8.026;2024-01-15T13:35:23;0.50;99.90
21207;DHT22;10761;48.532;8.026;2024-01-15T13:37:48;0.60;99.90
21207;DHT22;10761;48.532;8.026;2024-01-15T13:40:14;0.50;99.90
21207;DHT22;10761;48.532;8.026;2024-01-15T13:42:45;0.60;99.90
21207;DHT22;10761;48.532;8.026;2024-01-15T13:45:11;0.50;99.90
21207;DHT22;10761;48.532;8.026;2024-01-15T13:47:40;0.50;99.90
21207;DHT22;10761;48.532;8.026;2024-01-15T13:50:06;0.60;99.90
21207;DHT22;10761;48.532;8.026;2024-01-15T13:52:32;0.50;99.90
21207;DHT22;10761;48.532;8.026;2024-01-15T13:54:57;0.50;99.90
21207;DHT22;10761;48.532;8.026;2024-01-15T13:57:23;0.50;99.90
21207;DHT22;10761;48.532;8.026;2024-01-15T13:59:48;0.50;99.90
21207;DHT22;10761;48.532;8.026;2024-01-15T14:02:14;0.50;99.90
21207;DHT22;10761;48.532;8.026;2024-01-15T14:04:40;0.40;99.90
21207;DHT22;10761;48.532;8.026;2024-01-15T14:07:06;0.50;99.90
21207;DHT22;10761;48.532;8.026;2024-01-15T14:09:32;0.50;99.90
21207;DHT22;10761;48.532;8.026;2024-01-15T14:11:58;0.60;99.90
21207;DHT22;10761;48.532;8.026;2024-01-15T14:14:23;0.60;99.90
21207;DHT22;10761;48.532;8.026;2024-01-15T14:16:49;0.60;99.90
21207;DHT22;10761;48.532;8.026;2024-01-15T14:19:15;0.70;99.90
21207;DHT22;10761;48.532;8.026;2024-01-15T14:21:41;0.70;99.90
21207;DHT22;10761;48.532;8.026;2024-01-15T14:24:06;0.70;99.90
21207;DHT22;10761;48.532;8.026;2024-01-15T14:26:32;0.70;99.90
21207;DHT22;10761;48.532;8.026;2024-01-15T14:28:58;0.70;99.90
21207;DHT22;10761;48.532;8.026;2024-01-15T14:31:26;0.70;99.90
21207;DHT22;10761;48.532;8.026;2024-01-15T14:33:53;0.70;99.90
21207;DHT22;10761;48.532;8.026;2024-01-15T14:36:20;0.70;99.90
21207;DHT22;10761;48.532;8.026;2024-01-15T14:38:46;0.70;99.90
21207;DHT22;10761;48.532;8.026;2024-01-15T14:41:11;0.70;99.90
21207;DHT22;10761;48.532;8.026;2024-01-15T14:43:37;0.70;99.90
21207;DHT22;10761;48.532;8.026;2024-01-15T14:46:03;0.70;99.90
21207;DHT22;10761;48.532;8.026;2024-01-15T14:48:28;0.70;99.90
21207;DHT22;10761;48.532;8.026;2024-01-15T14:50:55;0.70;99.90
21207;DHT22;10761;48.532;8.026;2024-01-15T14:53:20;0.70;99.90
21207;DHT22;10761;48.532;8.026;2024-01-15T14:55:46;0.70;99.90
21207;DHT22;10761;48.532;8.026;2024-01-15T14:58:12;0.70;99.90
21207;DHT22;10761;48.532;8.026;2024-01-15T15:00:37;0.70;99.90
21207;DHT22;10761;48.532;8.026;2024-01-15T15:03:03;0.80;99.90
21207;DHT22;10761;48.532;8.026;2024-01-15T15:05:30;0.80;99.90
21207;DHT22;10761;48.532;8.026;2024-01-15T15:07:56;0.80;99.90
21207;DHT22;10761;48.532;8.026;2024-01-15T15:10:21;0.80;99.90
21207;DHT22;10761;48.532;8.026;2024-01-15T15:12:47;0.80;99.90
21207;DHT22;10761;48.532;8.026;2024-01-15T15:15:12;0.80;99.90
21207;DHT22;10761;48.532;8.026;2024-01-15T15:17:38;0.80;99.90
21207;DHT22;10761;48.532;8.026;2024-01-15T15:20:06;0.80;99.90
21207;DHT22;10761;48.532;8.026;2024-01-15T15:22:32;0.70;99.90
21207;DHT22;10761;48.532;8.026;2024-01-15T15:24:57;0.70;99.90
21207;DHT22;10761;48.532;8.026;2024-01-15T15:27:23;0.70;99.90
21207;DHT22;10761;48.532;8.026;2024-01-15T15:29:48;0.70;99.90
21207;DHT22;10761;48.532;8.026;2024-01-15T15:32:15;0.80;99.90
21207;DHT22;10761;48.532;8.026;2024-01-15T15:34:41;0.90;99.90
21207;DHT22;10761;48.532;8.026;2024-01-15T15:37:06;0.90;99.90
21207;DHT22;10761;48.532;8.026;2024-01-15T15:39:32;0.90;99.90
21207;DHT22;10761;48.532;8.026;2024-01-15T15:41:58;0.90;99.90
21207;DHT22;10761;48.532;8.026;2024-01-15T15:44:23;0.90;99.90
21207;DHT22;10761;48.532;8.026;2024-01-15T15:46:49;0.80;99.90
21207;DHT22;10761;48.532;8.026;2024-01-15T15:49:15;0.70;99.90
21207;DHT22;10761;48.532;8.026;2024-01-15T15:51:42;0.70;99.90